Latest Weather Observations for Maryborough

IDQ60801

Issued at 9:21 pm EST Wednesday 20 February 2019 (issued every 10 minutes, with the page automatically refreshed every 10 minutes)

About weather observations | Map of weather stations | Latest weather observations for QLD | Other Formats
Station Details ID: 040126 Name: MARYBOROUGH Lat: -25.51 Lon: 152.72 Height: 8.98 m
Data from the previous 72 hours. | See also: Recent months at Maryborough
Date/Time
EST
Temp
°C
App
Temp
°C
Dew
Point
°C
Rel
Hum
%
Delta-T
°C
Wind Press
QNH
hPa
Press
MSL
hPa
Rain since
9am
mm
Dir  Spd
km/h
Gust
km/h
Spd
kts
Gust
kts
20/09:00pm 23.3 25.8 21.0 87 1.5 SSE 9 11 5 6 1006.4 1006.3 0.0
20/08:30pm 23.7 26.1 20.8 84 1.9 SSE 9 13 5 7 1006.1 - 0.0
20/08:00pm 24.6 26.8 21.1 81 2.3 SE 11 15 6 8 1006.2 - 0.0
20/07:30pm 25.4 27.0 21.5 79 2.6 SE 15 20 8 11 1006.0 - 0.0
20/07:00pm 25.9 26.7 21.3 76 3.0 ESE 19 24 10 13 1005.7 - 0.0
20/06:30pm 26.4 26.8 20.9 72 3.6 ESE 20 28 11 15 1005.5 - 0.0
20/06:00pm 27.4 26.9 20.7 67 4.4 ESE 24 35 13 19 1005.3 1005.2 0.0
20/05:30pm 28.4 28.4 20.9 64 5.0 ESE 22 35 12 19 1004.8 - 0.0
20/05:00pm 30.3 29.9 20.2 54 6.7 ESE 22 35 12 19 1004.5 - 0.0
20/04:30pm 31.0 30.4 19.7 51 7.4 ESE 22 37 12 20 1004.3 - 0.0
20/04:00pm 32.1 31.0 19.4 47 8.3 ESE 24 37 13 20 1004.0 - 0.0
20/03:30pm 32.9 32.3 19.7 45 8.7 ESE 22 33 12 18 1003.9 - 0.0
20/03:00pm 32.8 31.6 20.0 47 8.5 SE 26 35 14 19 1004.0 1003.9 0.0
20/02:30pm 32.9 32.9 20.1 47 8.5 ESE 20 32 11 17 1004.2 - 0.0
20/02:00pm 32.9 31.8 19.4 45 8.9 SE 24 35 13 19 1004.7 - 0.0
20/01:30pm 33.2 31.7 18.5 41 9.6 SE 24 32 13 17 1005.4 - 0.0
20/01:00pm 33.5 32.7 19.2 43 9.4 ESE 22 35 12 19 1006.0 - 0.0
20/12:30pm 33.4 32.5 18.3 40 9.8 S 20 30 11 16 1006.3 - 0.0
20/12:00pm 33.9 33.8 19.9 43 9.3 SE 20 33 11 18 1006.9 1006.8 0.0
20/11:30am 32.0 32.4 18.9 45 8.5 SSE 15 26 8 14 1007.2 - 0.0
20/11:00am 30.7 30.9 19.4 51 7.4 SSE 17 28 9 15 1007.7 - 0.0
20/10:30am 30.1 29.7 18.8 50 7.3 SE 19 24 10 13 1008.2 - 0.0
20/10:00am 30.1 30.5 20.9 57 6.1 S 20 30 11 16 1008.5 - 0.0
20/09:30am 29.4 30.3 20.8 60 5.7 SE 17 22 9 12 1008.6 - 0.0
20/09:00am 27.9 28.3 20.7 65 4.8 SSE 19 28 10 15 1008.5 1008.4 0.0
20/08:30am 27.2 27.5 20.8 68 4.2 SSE 20 24 11 13 1008.4 - 0.0
20/08:00am 26.6 27.9 21.6 74 3.3 S 17 22 9 12 1008.3 - 0.0
20/07:30am 24.8 26.1 21.7 83 2.1 S 17 22 9 12 1008.3 - 0.0
20/07:00am 23.1 24.4 21.7 92 0.9 S 17 22 9 12 1008.1 - 0.0
20/06:30am 22.3 24.3 21.5 95 0.5 S 13 20 7 11 1007.7 - 0.0
20/06:00am 21.4 22.6 20.7 96 0.5 S 15 20 8 11 1007.1 1007.0 0.0
20/05:30am 21.3 22.8 20.6 96 0.5 S 13 17 7 9 1006.6 - 0.0
20/05:00am 21.3 23.1 21.1 99 0.1 S 13 15 7 8 1006.0 - 0.0
20/04:30am 20.1 21.8 19.4 96 0.4 S 9 11 5 6 1005.8 - 0.0
20/04:14am 19.8 21.3 18.8 94 0.6 S 9 11 5 6 1005.8 - 0.0
20/04:00am 19.7 21.1 18.7 94 0.6 S 9 11 5 6 1005.6 - 0.0
20/03:30am 20.4 22.7 19.4 94 0.6 SSE 6 7 3 4 1005.6 - 0.0
20/03:26am 20.5 22.8 19.5 94 0.6 SSE 6 7 3 4 1005.7 - 0.0
20/03:06am 20.5 23.5 19.3 93 0.8 SSE 2 7 1 4 1005.7 - 0.0
20/03:00am 20.6 24.0 19.4 93 0.8 CALM 0 0 0 0 1005.8 1005.7 0.0
20/02:37am 20.7 23.8 19.4 92 0.8 S 2 7 1 4 1005.8 - 0.0
20/02:30am 20.7 24.1 19.4 92 0.8 CALM 0 0 0 0 1005.8 - 0.0
20/02:00am 21.3 23.9 20.1 93 0.8 S 6 7 3 4 1005.9 - 0.0
20/01:30am 21.6 24.2 20.4 93 0.8 S 7 9 4 5 1006.2 - 0.0
20/01:00am 21.1 23.0 19.7 92 0.9 S 9 11 5 6 1006.5 - 0.0
20/12:30am 21.5 23.7 20.3 93 0.8 S 9 9 5 5 1006.8 - 0.0
20/12:00am 21.4 25.1 20.0 92 0.9 CALM 0 0 0 0 1007.2 1007.1 0.0
 
Date/Time
EST
Temp
°C
App
Temp
°C
Dew
Point
°C
Rel
Hum
%
Delta-T
°C
Wind Press
QNH
hPa
Press
MSL
hPa
Rain since
9am
mm
Dir  Spd
km/h
Gust
km/h
Spd
kts
Gust
kts
19/11:30pm 21.5 25.2 20.0 91 1.0 CALM 0 0 0 0 1007.6 - 0.0
19/11:00pm 21.6 25.3 19.9 90 1.1 CALM 0 0 0 0 1007.9 - 0.0
19/10:30pm 21.9 24.9 20.0 89 1.2 SSW 4 7 2 4 1008.1 - 0.0
19/10:00pm 22.2 26.2 20.5 90 1.1 CALM 0 7 0 4 1008.0 - 0.0
19/09:30pm 22.2 26.1 20.3 89 1.2 CALM 0 0 0 0 1008.0 - 0.0
19/09:00pm 22.3 24.8 19.8 86 1.6 SE 6 6 3 3 1007.8 1007.7 0.0
19/08:30pm 22.7 25.6 19.9 84 1.8 SE 4 6 2 3 1007.7 - 0.0
19/08:00pm 23.6 26.2 20.1 81 2.3 ESE 6 7 3 4 1007.3 - 0.0
19/07:30pm 24.6 26.7 20.1 76 2.9 ESE 9 11 5 6 1006.8 - 0.0
19/07:00pm 25.4 27.5 20.2 73 3.4 ESE 9 13 5 7 1006.6 - 0.0
19/06:30pm 26.3 27.5 19.9 68 4.2 ESE 13 20 7 11 1006.3 - 0.0
19/06:00pm 27.5 28.2 19.6 62 5.1 ESE 15 20 8 11 1005.9 1005.8 0.0
19/05:30pm 28.5 28.5 18.9 56 6.2 ESE 17 26 9 14 1005.5 - 0.0
19/05:00pm 29.5 29.1 18.9 53 6.9 ESE 19 28 10 15 1005.0 - 0.0
19/04:30pm 30.8 30.3 19.2 50 7.6 ESE 20 30 11 16 1004.7 - 0.0
19/04:00pm 31.2 30.7 19.2 48 7.8 ESE 20 28 11 15 1004.5 - 0.0
19/03:30pm 31.7 30.9 19.3 47 8.1 ESE 22 33 12 18 1004.6 - 0.0
19/03:00pm 33.0 32.9 19.5 45 8.9 ESE 19 32 10 17 1004.5 1004.4 0.0
19/02:30pm 32.5 32.5 19.7 46 8.4 E 19 32 10 17 1004.7 - 0.0
19/02:00pm 32.7 33.1 19.9 46 8.5 E 17 28 9 15 1004.8 - 0.0
19/01:30pm 33.6 34.5 20.0 44 9.0 E 15 22 8 12 1005.3 - 0.0
19/01:00pm 33.1 33.7 18.5 42 9.5 SE 13 22 7 12 1005.9 - 0.0
19/12:30pm 32.2 32.6 19.1 45 8.6 SE 15 24 8 13 1006.3 - 0.0
19/12:00pm 31.6 31.6 18.2 44 8.7 SE 15 24 8 13 1007.0 1006.9 0.0
19/11:30am 32.2 32.8 19.5 47 8.3 ESE 15 28 8 15 1007.5 - 0.0
19/11:00am 31.6 32.0 18.9 47 8.3 ESE 15 28 8 15 1008.0 - 0.0
19/10:30am 31.7 31.8 18.3 45 8.7 ESE 15 24 8 13 1008.4 - 0.0
19/10:00am 30.5 31.5 19.5 51 7.2 ESE 13 20 7 11 1008.6 - 0.0
19/09:30am 29.7 31.2 19.7 55 6.5 SSE 11 20 6 11 1008.8 - 0.0
19/09:00am 29.5 31.0 20.6 58 5.9 SSE 13 22 7 12 1008.9 1008.8 0.0
19/08:30am 27.6 29.6 20.7 66 4.6 S 11 19 6 10 1009.0 - 0.0
19/08:00am 25.1 26.4 19.2 70 3.8 SSE 11 17 6 9 1009.1 - 0.0
19/07:30am 23.2 23.8 18.7 76 2.8 S 13 15 7 8 1009.1 - 0.0
19/07:00am 22.0 22.5 18.4 80 2.3 S 13 17 7 9 1009.0 - 0.0
19/06:30am 20.6 21.4 18.2 86 1.5 S 11 15 6 8 1008.8 - 0.0
19/06:00am 18.3 19.4 16.5 89 1.1 S 6 7 3 4 1008.5 1008.4 0.0
19/05:30am 18.7 18.9 16.8 89 1.1 S 11 13 6 7 1008.1 - 0.0
19/05:00am 18.9 19.5 16.9 88 1.2 S 9 11 5 6 1008.0 - 0.0
19/04:30am 19.5 19.8 17.1 86 1.5 S 11 15 6 8 1007.9 - 0.0
19/04:00am 20.0 20.1 17.4 85 1.6 S 13 19 7 10 1008.0 - 0.0
19/03:30am 19.7 20.2 17.5 87 1.3 S 11 19 6 10 1008.0 - 0.0
19/03:00am 19.7 19.7 17.3 86 1.5 S 13 17 7 9 1008.1 1008.0 0.0
19/02:30am 19.9 19.9 17.3 85 1.6 S 13 15 7 8 1008.2 - 0.0
19/02:00am 20.4 20.5 17.4 83 1.8 S 13 17 7 9 1008.4 - 0.0
19/01:30am 20.7 20.5 17.5 82 2.0 S 15 19 8 10 1008.6 - 0.0
19/01:00am 20.1 20.1 17.3 84 1.7 S 13 15 7 8 1009.1 - 0.0
19/12:30am 19.9 20.2 17.1 84 1.7 SSW 11 13 6 7 1009.3 - 0.0
19/12:00am 18.5 18.3 15.7 84 1.7 S 11 13 6 7 1009.7 1009.6 0.0
 
Date/Time
EST
Temp
°C
App
Temp
°C
Dew
Point
°C
Rel
Hum
%
Delta-T
°C
Wind Press
QNH
hPa
Press
MSL
hPa
Rain since
9am
mm
Dir  Spd
km/h
Gust
km/h
Spd
kts
Gust
kts
18/11:30pm 19.9 19.8 16.9 83 1.8 SSE 13 19 7 10 1010.1 - 0.0
18/11:00pm 19.4 19.8 16.2 82 1.9 SSE 9 11 5 6 1010.4 - 0.0
18/10:30pm 20.2 21.3 17.0 82 1.9 SE 7 9 4 5 1010.7 - 0.0
18/10:00pm 20.1 21.0 16.5 80 2.2 SSE 7 9 4 5 1010.8 - 0.0
18/09:30pm 20.6 21.1 16.6 78 2.4 S 9 11 5 6 1010.8 - 0.0
18/09:00pm 21.2 21.9 17.0 77 2.6 SE 9 11 5 6 1010.7 1010.6 0.0
18/08:30pm 21.5 21.5 17.1 76 2.7 SE 13 17 7 9 1010.4 - 0.0
18/08:00pm 22.4 22.6 16.7 70 3.5 SE 11 15 6 8 1010.2 - 0.0
18/07:30pm 24.2 23.4 17.0 64 4.4 ESE 17 24 9 13 1009.9 - 0.0
18/07:00pm 24.6 24.3 17.3 64 4.5 ESE 15 22 8 12 1009.3 - 0.0
18/06:30pm 25.4 24.2 17.1 60 5.2 SE 19 26 10 14 1009.1 - 0.0
18/06:00pm 26.5 24.0 16.1 52 6.4 ESE 24 39 13 21 1008.8 1008.7 0.0
18/05:30pm 27.5 24.8 15.5 48 7.3 ESE 24 43 13 23 1008.3 - 0.0
18/05:00pm 28.5 25.1 15.8 46 7.8 ESE 28 39 15 21 1008.1 - 0.0
18/04:30pm 28.9 25.6 16.1 46 7.9 ESE 28 39 15 21 1007.8 - 0.0
18/04:00pm 29.6 27.4 16.8 46 8.0 ESE 24 43 13 23 1007.8 - 0.0
18/03:30pm 29.3 26.2 16.5 46 8.0 ESE 28 44 15 24 1007.9 - 0.0
18/03:00pm 30.3 27.0 17.0 44 8.4 ESE 30 43 16 23 1008.0 1007.9 0.0
18/02:30pm 29.9 27.2 16.7 45 8.3 ESE 26 37 14 20 1008.1 - 0.0
18/02:00pm 31.0 27.3 15.0 38 9.8 SE 28 41 15 22 1008.6 - 0.0
18/01:30pm 31.6 28.3 15.1 36 10.2 SE 26 41 14 22 1009.0 - 0.0
18/01:00pm 30.3 27.5 14.4 38 9.6 SE 22 39 12 21 1009.4 - 0.0
18/12:30pm 31.0 28.7 15.8 40 9.4 ESE 22 44 12 24 1009.6 - 0.0
18/12:00pm 32.4 31.2 17.5 41 9.5 SSE 20 39 11 21 1009.9 1009.8 0.0
18/11:30am 31.3 29.1 16.8 41 9.2 SE 24 35 13 19 1010.3 - 0.0
18/11:00am 28.7 26.6 16.3 47 7.7 SSE 22 32 12 17 1010.7 - 0.0
18/10:30am 28.6 26.5 16.2 47 7.7 SSE 22 30 12 16 1010.9 - 0.0
18/10:00am 29.8 26.0 13.5 36 9.7 SE 26 35 14 19 1011.1 - 0.0
18/09:30am 28.9 25.2 15.1 43 8.4 SE 28 37 15 20 1011.3 - 0.0
18/09:00am 28.8 26.6 15.0 43 8.4 ESE 20 35 11 19 1011.3 1011.2 0.0
18/08:30am 27.1 26.4 17.3 55 6.1 SSE 17 26 9 14 1011.4 - 0.0
18/08:00am 26.0 25.7 18.2 62 4.9 S 17 22 9 12 1011.6 - 0.0
18/07:30am 24.2 23.3 17.7 67 4.1 S 19 24 10 13 1011.3 - 0.0
18/07:00am 22.8 22.3 17.7 73 3.2 S 17 22 9 12 1011.0 - 0.0
18/06:30am 21.8 20.8 17.6 77 2.6 S 19 24 10 13 1010.9 - 0.0
18/06:00am 20.9 20.5 17.1 79 2.3 S 15 20 8 11 1010.7 1010.6 0.0
18/05:30am 20.3 20.0 17.3 83 1.8 S 15 17 8 9 1010.6 - 0.0
18/05:00am 19.8 20.0 16.8 83 1.8 SSW 11 15 6 8 1010.4 - 0.0
18/04:30am 20.1 19.7 17.1 83 1.8 S 15 19 8 10 1010.2 - 0.0
18/04:00am 19.2 19.3 16.4 84 1.7 S 11 13 6 7 1010.0 - 0.0
18/03:30am 19.4 20.0 16.8 85 1.6 S 9 13 5 7 1010.0 - 0.0
18/03:00am 19.9 19.8 16.9 83 1.8 S 13 19 7 10 1010.1 1010.0 0.0
18/02:30am 19.8 19.8 17.2 85 1.6 S 13 19 7 10 1010.1 - 0.0
18/02:00am 19.5 19.8 16.9 85 1.6 S 11 15 6 8 1010.3 - 0.0
18/01:30am 19.4 19.7 17.0 86 1.5 S 11 13 6 7 1010.6 - 0.0
18/01:00am 19.8 20.2 17.2 85 1.6 S 11 15 6 8 1011.1 - 0.0
18/12:30am 20.1 20.5 17.3 84 1.7 S 11 13 6 7 1011.5 - 0.0
18/12:00am 20.5 20.6 17.5 83 1.8 S 13 17 7 9 1011.7 1011.6 0.0
 
Date/Time
EST
Temp
°C
App
Temp
°C
Dew
Point
°C
Rel
Hum
%
Delta-T
°C
Wind Press
QNH
hPa
Press
MSL
hPa
Rain since
9am
mm
Dir  Spd
km/h
Gust
km/h
Spd
kts
Gust
kts
17/11:30pm 19.9 20.2 16.9 83 1.8 S 11 13 6 7 1012.0 - 0.0
17/11:00pm 20.5 20.9 17.3 82 2.0 S 11 15 6 8 1012.3 - 0.0
17/10:30pm 21.2 21.5 17.8 81 2.1 S 13 17 7 9 1012.5 - 0.0
17/10:00pm 21.1 21.3 17.7 81 2.1 S 13 15 7 8 1012.5 - 0.0
17/09:30pm 20.9 21.4 17.5 81 2.1 SSE 11 13 6 7 1012.5 - 0.0

Other formats

Comma delimited format used in spreadsheet applications
http://www.bom.gov.au/fwo/IDQ60801/IDQ60801.94567.axf

JavaScript Object Notation format (JSON) in row-major order
http://www.bom.gov.au/fwo/IDQ60801/IDQ60801.94567.json

Data quality

Most of these data are generated automatically and are frequently updated. Quality checks on data are not normally performed. It is possible for incorrect values to appear. Refer to information at About Latest Weather Observations and please check the disclaimer before using these data.